sensor_id;sensor_type;location;lat;lon;timestamp;P1;durP1;ratioP1;P2;durP2;ratioP2
41512;SDS011;27244;59.940;30.280;2023-04-25T00:02:12;11.85;;;5.93;;
41512;SDS011;27244;59.940;30.280;2023-04-25T00:04:40;11.20;;;6.28;;
41512;SDS011;27244;59.940;30.280;2023-04-25T00:07:07;9.77;;;5.68;;
41512;SDS011;27244;59.940;30.280;2023-04-25T00:09:34;9.10;;;6.22;;
41512;SDS011;27244;59.940;30.280;2023-04-25T00:12:02;10.38;;;5.72;;
41512;SDS011;27244;59.940;30.280;2023-04-25T00:14:29;10.90;;;6.25;;
41512;SDS011;27244;59.940;30.280;2023-04-25T00:16:58;7.22;;;5.55;;
41512;SDS011;27244;59.940;30.280;2023-04-25T00:19:25;8.65;;;5.82;;
41512;SDS011;27244;59.940;30.280;2023-04-25T00:21:53;9.18;;;5.60;;
41512;SDS011;27244;59.940;30.280;2023-04-25T00:24:20;7.85;;;6.10;;
41512;SDS011;27244;59.940;30.280;2023-04-25T00:26:47;8.50;;;5.85;;
41512;SDS011;27244;59.940;30.280;2023-04-25T00:29:15;9.02;;;5.78;;
41512;SDS011;27244;59.940;30.280;2023-04-25T00:31:42;8.32;;;5.75;;
41512;SDS011;27244;59.940;30.280;2023-04-25T00:34:10;10.00;;;5.85;;
41512;SDS011;27244;59.940;30.280;2023-04-25T00:36:36;8.32;;;5.28;;
41512;SDS011;27244;59.940;30.280;2023-04-25T00:39:04;8.75;;;5.82;;
41512;SDS011;27244;59.940;30.280;2023-04-25T00:41:31;6.60;;;5.47;;
41512;SDS011;27244;59.940;30.280;2023-04-25T00:43:59;9.05;;;5.75;;
41512;SDS011;27244;59.940;30.280;2023-04-25T00:46:29;10.32;;;5.72;;
41512;SDS011;27244;59.940;30.280;2023-04-25T00:48:57;9.93;;;6.32;;
41512;SDS011;27244;59.940;30.280;2023-04-25T00:51:24;11.77;;;6.10;;
41512;SDS011;27244;59.940;30.280;2023-04-25T00:53:53;10.15;;;6.03;;
41512;SDS011;27244;59.940;30.280;2023-04-25T00:56:21;10.07;;;5.78;;
41512;SDS011;27244;59.940;30.280;2023-04-25T00:58:48;10.18;;;5.50;;
41512;SDS011;27244;59.940;30.280;2023-04-25T01:01:16;9.63;;;6.38;;
41512;SDS011;27244;59.940;30.280;2023-04-25T01:03:45;10.80;;;6.68;;
41512;SDS011;27244;59.940;30.280;2023-04-25T01:06:13;11.25;;;6.72;;
41512;SDS011;27244;59.940;30.280;2023-04-25T01:08:40;10.27;;;5.45;;
41512;SDS011;27244;59.940;30.280;2023-04-25T01:11:07;8.68;;;6.20;;
41512;SDS011;27244;59.940;30.280;2023-04-25T01:13:34;9.77;;;6.55;;
41512;SDS011;27244;59.940;30.280;2023-04-25T01:16:02;8.77;;;5.65;;
41512;SDS011;27244;59.940;30.280;2023-04-25T01:18:29;8.73;;;5.57;;
41512;SDS011;27244;59.940;30.280;2023-04-25T01:23:33;9.82;;;6.25;;
41512;SDS011;27244;59.940;30.280;2023-04-25T01:26:00;9.82;;;6.15;;
41512;SDS011;27244;59.940;30.280;2023-04-25T01:28:29;9.85;;;6.15;;
41512;SDS011;27244;59.940;30.280;2023-04-25T01:30:57;9.27;;;6.07;;
41512;SDS011;27244;59.940;30.280;2023-04-25T01:33:24;9.40;;;5.85;;
41512;SDS011;27244;59.940;30.280;2023-04-25T01:35:51;8.65;;;5.90;;
41512;SDS011;27244;59.940;30.280;2023-04-25T01:38:20;9.63;;;5.35;;
41512;SDS011;27244;59.940;30.280;2023-04-25T01:40:47;10.45;;;6.50;;
41512;SDS011;27244;59.940;30.280;2023-04-25T01:43:18;9.30;;;6.30;;
41512;SDS011;27244;59.940;30.280;2023-04-25T01:45:45;8.82;;;5.68;;
41512;SDS011;27244;59.940;30.280;2023-04-25T01:48:13;9.07;;;6.28;;
41512;SDS011;27244;59.940;30.280;2023-04-25T01:50:42;8.63;;;5.60;;
41512;SDS011;27244;59.940;30.280;2023-04-25T01:53:11;6.95;;;5.60;;
41512;SDS011;27244;59.940;30.280;2023-04-25T01:55:42;11.65;;;6.50;;
41512;SDS011;27244;59.940;30.280;2023-04-25T01:58:12;8.10;;;5.50;;
41512;SDS011;27244;59.940;30.280;2023-04-25T02:01:00;7.55;;;5.40;;
41512;SDS011;27244;59.940;30.280;2023-04-25T02:03:32;7.95;;;5.30;;
41512;SDS011;27244;59.940;30.280;2023-04-25T02:06:03;7.80;;;5.53;;
41512;SDS011;27244;59.940;30.280;2023-04-25T02:08:33;8.77;;;6.13;;
41512;SDS011;27244;59.940;30.280;2023-04-25T02:11:01;9.07;;;5.90;;
41512;SDS011;27244;59.940;30.280;2023-04-25T02:13:35;9.50;;;5.65;;
41512;SDS011;27244;59.940;30.280;2023-04-25T02:16:12;8.68;;;5.95;;
41512;SDS011;27244;59.940;30.280;2023-04-25T02:18:39;8.00;;;5.78;;
41512;SDS011;27244;59.940;30.280;2023-04-25T02:21:06;7.88;;;6.18;;
41512;SDS011;27244;59.940;30.280;2023-04-25T02:23:33;8.75;;;5.95;;
41512;SDS011;27244;59.940;30.280;2023-04-25T02:26:02;9.32;;;6.35;;
41512;SDS011;27244;59.940;30.280;2023-04-25T02:28:29;8.00;;;5.45;;
41512;SDS011;27244;59.940;30.280;2023-04-25T02:30:56;8.13;;;6.00;;
41512;SDS011;27244;59.940;30.280;2023-04-25T02:33:23;11.23;;;6.00;;
41512;SDS011;27244;59.940;30.280;2023-04-25T02:35:50;9.13;;;6.13;;
41512;SDS011;27244;59.940;30.280;2023-04-25T02:38:21;6.80;;;5.38;;
41512;SDS011;27244;59.940;30.280;2023-04-25T02:40:47;8.02;;;5.40;;
41512;SDS011;27244;59.940;30.280;2023-04-25T02:43:16;8.57;;;5.22;;
41512;SDS011;27244;59.940;30.280;2023-04-25T02:45:43;7.75;;;5.22;;
41512;SDS011;27244;59.940;30.280;2023-04-25T02:48:11;7.60;;;5.28;;
41512;SDS011;27244;59.940;30.280;2023-04-25T02:50:38;9.75;;;5.85;;
41512;SDS011;27244;59.940;30.280;2023-04-25T02:53:04;8.88;;;5.90;;
41512;SDS011;27244;59.940;30.280;2023-04-25T02:55:37;6.93;;;5.03;;
41512;SDS011;27244;59.940;30.280;2023-04-25T02:58:04;8.95;;;5.32;;
41512;SDS011;27244;59.940;30.280;2023-04-25T03:00:52;8.02;;;5.70;;
41512;SDS011;27244;59.940;30.280;2023-04-25T03:03:19;8.63;;;5.10;;
41512;SDS011;27244;59.940;30.280;2023-04-25T03:05:47;9.15;;;5.22;;
41512;SDS011;27244;59.940;30.280;2023-04-25T03:08:18;8.23;;;5.30;;
41512;SDS011;27244;59.940;30.280;2023-04-25T03:10:45;8.27;;;4.78;;
41512;SDS011;27244;59.940;30.280;2023-04-25T03:13:14;7.47;;;4.97;;
41512;SDS011;27244;59.940;30.280;2023-04-25T03:15:42;10.55;;;4.97;;
41512;SDS011;27244;59.940;30.280;2023-04-25T03:18:11;8.18;;;4.95;;
41512;SDS011;27244;59.940;30.280;2023-04-25T03:20:38;8.20;;;4.85;;
41512;SDS011;27244;59.940;30.280;2023-04-25T03:23:08;6.72;;;4.68;;
41512;SDS011;27244;59.940;30.280;2023-04-25T03:25:36;7.57;;;4.63;;
41512;SDS011;27244;59.940;30.280;2023-04-25T03:28:03;7.20;;;5.00;;
41512;SDS011;27244;59.940;30.280;2023-04-25T03:30:31;6.32;;;4.20;;
41512;SDS011;27244;59.940;30.280;2023-04-25T03:32:58;7.95;;;4.70;;
41512;SDS011;27244;59.940;30.280;2023-04-25T03:35:27;7.63;;;4.50;;
41512;SDS011;27244;59.940;30.280;2023-04-25T03:37:54;8.70;;;4.60;;
41512;SDS011;27244;59.940;30.280;2023-04-25T03:40:26;7.50;;;4.47;;
41512;SDS011;27244;59.940;30.280;2023-04-25T03:43:17;6.88;;;4.05;;
41512;SDS011;27244;59.940;30.280;2023-04-25T03:45:50;8.75;;;4.47;;
41512;SDS011;27244;59.940;30.280;2023-04-25T03:48:20;5.63;;;4.18;;
41512;SDS011;27244;59.940;30.280;2023-04-25T03:50:51;7.32;;;4.28;;
41512;SDS011;27244;59.940;30.280;2023-04-25T03:53:19;6.65;;;3.78;;
41512;SDS011;27244;59.940;30.280;2023-04-25T03:56:04;6.35;;;4.32;;
41512;SDS011;27244;59.940;30.280;2023-04-25T03:58:34;6.10;;;4.13;;
41512;SDS011;27244;59.940;30.280;2023-04-25T04:01:02;8.05;;;4.15;;
41512;SDS011;27244;59.940;30.280;2023-04-25T04:03:33;4.93;;;3.88;;
41512;SDS011;27244;59.940;30.280;2023-04-25T04:06:02;7.50;;;4.30;;
41512;SDS011;27244;59.940;30.280;2023-04-25T04:10:59;7.32;;;4.05;;
41512;SDS011;27244;59.940;30.280;2023-04-25T04:13:26;7.93;;;3.85;;
41512;SDS011;27244;59.940;30.280;2023-04-25T04:15:54;5.00;;;3.60;;
41512;SDS011;27244;59.940;30.280;2023-04-25T04:18:22;6.03;;;3.85;;
41512;SDS011;27244;59.940;30.280;2023-04-25T04:20:50;7.28;;;3.85;;
41512;SDS011;27244;59.940;30.280;2023-04-25T04:23:18;5.50;;;3.80;;
41512;SDS011;27244;59.940;30.280;2023-04-25T04:25:46;5.30;;;3.60;;
41512;SDS011;27244;59.940;30.280;2023-04-25T04:28:33;6.45;;;3.47;;
41512;SDS011;27244;59.940;30.280;2023-04-25T04:31:24;7.15;;;3.70;;
41512;SDS011;27244;59.940;30.280;2023-04-25T04:33:50;3.95;;;3.53;;
41512;SDS011;27244;59.940;30.280;2023-04-25T04:36:18;6.13;;;3.70;;
41512;SDS011;27244;59.940;30.280;2023-04-25T04:38:49;6.20;;;3.80;;
41512;SDS011;27244;59.940;30.280;2023-04-25T04:41:27;9.32;;;3.55;;
41512;SDS011;27244;59.940;30.280;2023-04-25T04:44:27;6.53;;;3.60;;
41512;SDS011;27244;59.940;30.280;2023-04-25T04:47:32;4.80;;;3.35;;
41512;SDS011;27244;59.940;30.280;2023-04-25T04:50:20;6.15;;;3.67;;
41512;SDS011;27244;59.940;30.280;2023-04-25T04:53:03;4.82;;;3.22;;
41512;SDS011;27244;59.940;30.280;2023-04-25T04:55:38;6.35;;;3.42;;
41512;SDS011;27244;59.940;30.280;2023-04-25T04:58:21;4.88;;;3.30;;
41512;SDS011;27244;59.940;30.280;2023-04-25T05:01:02;6.18;;;3.40;;
41512;SDS011;27244;59.940;30.280;2023-04-25T05:03:37;4.82;;;3.33;;
41512;SDS011;27244;59.940;30.280;2023-04-25T05:06:05;6.32;;;3.40;;
41512;SDS011;27244;59.940;30.280;2023-04-25T05:08:50;6.10;;;3.47;;
41512;SDS011;27244;59.940;30.280;2023-04-25T05:11:19;5.82;;;3.30;;
41512;SDS011;27244;59.940;30.280;2023-04-25T05:14:00;6.25;;;3.38;;
41512;SDS011;27244;59.940;30.280;2023-04-25T05:16:48;4.40;;;2.97;;
41512;SDS011;27244;59.940;30.280;2023-04-25T05:19:35;5.00;;;3.15;;
41512;SDS011;27244;59.940;30.280;2023-04-25T05:22:31;5.85;;;3.40;;
41512;SDS011;27244;59.940;30.280;2023-04-25T05:25:18;7.47;;;3.53;;
41512;SDS011;27244;59.940;30.280;2023-04-25T05:28:25;6.65;;;4.03;;
41512;SDS011;27244;59.940;30.280;2023-04-25T05:31:10;6.88;;;3.40;;
41512;SDS011;27244;59.940;30.280;2023-04-25T05:33:47;6.63;;;3.40;;
41512;SDS011;27244;59.940;30.280;2023-04-25T05:36:15;5.95;;;2.85;;
41512;SDS011;27244;59.940;30.280;2023-04-25T05:38:43;7.35;;;3.35;;
41512;SDS011;27244;59.940;30.280;2023-04-25T05:41:13;5.95;;;3.47;;
41512;SDS011;27244;59.940;30.280;2023-04-25T05:43:45;9.63;;;3.27;;
41512;SDS011;27244;59.940;30.280;2023-04-25T05:46:30;4.05;;;2.78;;
41512;SDS011;27244;59.940;30.280;2023-04-25T05:49:20;5.22;;;2.85;;
41512;SDS011;27244;59.940;30.280;2023-04-25T05:52:22;5.95;;;3.00;;
41512;SDS011;27244;59.940;30.280;2023-04-25T05:55:10;4.28;;;2.70;;
41512;SDS011;27244;59.940;30.280;2023-04-25T05:57:37;6.03;;;3.53;;
41512;SDS011;27244;59.940;30.280;2023-04-25T06:00:09;5.57;;;2.55;;
41512;SDS011;27244;59.940;30.280;2023-04-25T06:02:39;6.25;;;2.60;;
41512;SDS011;27244;59.940;30.280;2023-04-25T06:05:07;7.28;;;2.65;;
41512;SDS011;27244;59.940;30.280;2023-04-25T06:07:35;13.00;;;3.60;;
41512;SDS011;27244;59.940;30.280;2023-04-25T06:10:02;9.13;;;2.40;;
41512;SDS011;27244;59.940;30.280;2023-04-25T06:12:31;9.65;;;2.60;;
41512;SDS011;27244;59.940;30.280;2023-04-25T06:14:59;5.95;;;2.38;;
41512;SDS011;27244;59.940;30.280;2023-04-25T06:17:27;9.38;;;2.90;;
41512;SDS011;27244;59.940;30.280;2023-04-25T06:19:54;5.32;;;2.55;;
41512;SDS011;27244;59.940;30.280;2023-04-25T06:22:22;9.43;;;3.55;;
41512;SDS011;27244;59.940;30.280;2023-04-25T06:24:49;7.97;;;2.58;;
41512;SDS011;27244;59.940;30.280;2023-04-25T06:27:16;10.05;;;2.90;;
41512;SDS011;27244;59.940;30.280;2023-04-25T06:29:45;31.67;;;3.70;;
41512;SDS011;27244;59.940;30.280;2023-04-25T06:32:13;9.98;;;2.50;;
41512;SDS011;27244;59.940;30.280;2023-04-25T06:34:41;7.13;;;2.55;;
41512;SDS011;27244;59.940;30.280;2023-04-25T06:37:08;7.30;;;2.30;;
41512;SDS011;27244;59.940;30.280;2023-04-25T06:39:35;9.88;;;2.83;;
41512;SDS011;27244;59.940;30.280;2023-04-25T06:42:02;9.75;;;2.30;;
41512;SDS011;27244;59.940;30.280;2023-04-25T06:44:58;7.60;;;2.53;;
41512;SDS011;27244;59.940;30.280;2023-04-25T06:47:27;6.32;;;2.50;;
41512;SDS011;27244;59.940;30.280;2023-04-25T06:49:56;5.22;;;2.95;;
41512;SDS011;27244;59.940;30.280;2023-04-25T06:52:23;6.45;;;3.33;;
41512;SDS011;27244;59.940;30.280;2023-04-25T06:54:52;7.63;;;2.53;;
41512;SDS011;27244;59.940;30.280;2023-04-25T06:57:37;5.47;;;1.98;;
41512;SDS011;27244;59.940;30.280;2023-04-25T07:00:28;2.75;;;1.83;;
41512;SDS011;27244;59.940;30.280;2023-04-25T07:02:58;4.30;;;2.10;;
41512;SDS011;27244;59.940;30.280;2023-04-25T07:05:26;5.65;;;2.25;;
41512;SDS011;27244;59.940;30.280;2023-04-25T07:07:53;5.68;;;2.17;;
41512;SDS011;27244;59.940;30.280;2023-04-25T07:10:20;5.55;;;2.40;;
41512;SDS011;27244;59.940;30.280;2023-04-25T07:12:47;5.80;;;3.03;;
41512;SDS011;27244;59.940;30.280;2023-04-25T07:15:15;6.88;;;2.58;;
41512;SDS011;27244;59.940;30.280;2023-04-25T07:17:45;3.13;;;2.33;;
41512;SDS011;27244;59.940;30.280;2023-04-25T07:20:12;8.63;;;2.60;;
41512;SDS011;27244;59.940;30.280;2023-04-25T07:22:40;6.13;;;3.05;;
41512;SDS011;27244;59.940;30.280;2023-04-25T07:25:08;3.55;;;2.00;;
41512;SDS011;27244;59.940;30.280;2023-04-25T07:27:36;5.43;;;2.30;;
41512;SDS011;27244;59.940;30.280;2023-04-25T07:30:12;5.90;;;2.33;;
41512;SDS011;27244;59.940;30.280;2023-04-25T07:32:39;3.33;;;2.08;;
41512;SDS011;27244;59.940;30.280;2023-04-25T07:35:08;4.43;;;1.90;;
41512;SDS011;27244;59.940;30.280;2023-04-25T07:37:35;3.05;;;1.92;;
41512;SDS011;27244;59.940;30.280;2023-04-25T07:40:11;4.47;;;1.80;;
41512;SDS011;27244;59.940;30.280;2023-04-25T07:42:49;2.88;;;1.63;;
41512;SDS011;27244;59.940;30.280;2023-04-25T07:45:22;3.88;;;2.05;;
41512;SDS011;27244;59.940;30.280;2023-04-25T07:47:51;3.92;;;2.08;;
41512;SDS011;27244;59.940;30.280;2023-04-25T07:50:18;3.17;;;1.90;;
41512;SDS011;27244;59.940;30.280;2023-04-25T07:52:46;4.97;;;2.38;;
41512;SDS011;27244;59.940;30.280;2023-04-25T07:55:22;2.60;;;1.80;;
41512;SDS011;27244;59.940;30.280;2023-04-25T07:58:01;4.80;;;1.85;;
41512;SDS011;27244;59.940;30.280;2023-04-25T08:00:31;4.57;;;1.83;;
41512;SDS011;27244;59.940;30.280;2023-04-25T08:03:18;6.38;;;2.00;;
41512;SDS011;27244;59.940;30.280;2023-04-25T08:05:45;7.35;;;2.00;;
41512;SDS011;27244;59.940;30.280;2023-04-25T08:08:13;9.77;;;2.55;;
41512;SDS011;27244;59.940;30.280;2023-04-25T08:10:41;10.02;;;2.00;;
41512;SDS011;27244;59.940;30.280;2023-04-25T08:13:09;5.13;;;1.73;;
41512;SDS011;27244;59.940;30.280;2023-04-25T08:15:36;4.20;;;1.83;;
41512;SDS011;27244;59.940;30.280;2023-04-25T08:18:03;4.78;;;1.60;;
41512;SDS011;27244;59.940;30.280;2023-04-25T08:20:31;7.75;;;2.38;;
41512;SDS011;27244;59.940;30.280;2023-04-25T08:23:01;5.90;;;2.20;;
41512;SDS011;27244;59.940;30.280;2023-04-25T08:25:41;4.68;;;1.60;;
41512;SDS011;27244;59.940;30.280;2023-04-25T08:28:11;5.35;;;1.98;;
41512;SDS011;27244;59.940;30.280;2023-04-25T08:30:38;2.75;;;2.00;;
41512;SDS011;27244;59.940;30.280;2023-04-25T08:33:07;3.90;;;1.65;;
41512;SDS011;27244;59.940;30.280;2023-04-25T08:35:54;4.97;;;2.13;;
41512;SDS011;27244;59.940;30.280;2023-04-25T08:38:21;5.13;;;1.95;;
41512;SDS011;27244;59.940;30.280;2023-04-25T08:40:50;4.22;;;2.03;;
41512;SDS011;27244;59.940;30.280;2023-04-25T08:43:19;3.73;;;2.00;;
41512;SDS011;27244;59.940;30.280;2023-04-25T08:45:47;5.55;;;1.90;;
41512;SDS011;27244;59.940;30.280;2023-04-25T08:48:31;2.90;;;1.67;;
41512;SDS011;27244;59.940;30.280;2023-04-25T08:50:59;5.20;;;2.08;;
41512;SDS011;27244;59.940;30.280;2023-04-25T08:53:30;4.13;;;1.67;;
41512;SDS011;27244;59.940;30.280;2023-04-25T08:56:03;6.13;;;1.80;;
41512;SDS011;27244;59.940;30.280;2023-04-25T08:58:34;3.45;;;1.50;;
41512;SDS011;27244;59.940;30.280;2023-04-25T09:01:03;3.78;;;1.67;;
41512;SDS011;27244;59.940;30.280;2023-04-25T09:03:37;2.17;;;1.35;;
41512;SDS011;27244;59.940;30.280;2023-04-25T09:06:04;2.67;;;1.60;;
41512;SDS011;27244;59.940;30.280;2023-04-25T09:08:32;2.90;;;1.45;;
41512;SDS011;27244;59.940;30.280;2023-04-25T09:10:58;3.15;;;1.48;;
41512;SDS011;27244;59.940;30.280;2023-04-25T09:13:27;2.75;;;1.60;;
41512;SDS011;27244;59.940;30.280;2023-04-25T09:16:15;1.80;;;1.50;;
41512;SDS011;27244;59.940;30.280;2023-04-25T09:19:13;3.85;;;1.38;;
41512;SDS011;27244;59.940;30.280;2023-04-25T09:21:48;2.40;;;1.42;;
41512;SDS011;27244;59.940;30.280;2023-04-25T09:24:15;2.95;;;1.50;;
41512;SDS011;27244;59.940;30.280;2023-04-25T09:26:42;3.17;;;1.73;;
41512;SDS011;27244;59.940;30.280;2023-04-25T09:29:11;3.17;;;1.67;;
41512;SDS011;27244;59.940;30.280;2023-04-25T09:31:40;3.47;;;1.77;;
41512;SDS011;27244;59.940;30.280;2023-04-25T09:34:09;6.50;;;1.55;;
41512;SDS011;27244;59.940;30.280;2023-04-25T09:36:45;3.38;;;1.52;;
41512;SDS011;27244;59.940;30.280;2023-04-25T09:39:14;2.75;;;1.50;;
41512;SDS011;27244;59.940;30.280;2023-04-25T09:41:53;6.18;;;1.40;;
41512;SDS011;27244;59.940;30.280;2023-04-25T09:44:24;2.55;;;1.50;;
41512;SDS011;27244;59.940;30.280;2023-04-25T09:46:53;2.60;;;1.40;;
41512;SDS011;27244;59.940;30.280;2023-04-25T09:49:24;3.63;;;1.42;;
41512;SDS011;27244;59.940;30.280;2023-04-25T09:52:04;3.40;;;1.35;;
41512;SDS011;27244;59.940;30.280;2023-04-25T09:54:43;2.28;;;1.40;;
41512;SDS011;27244;59.940;30.280;2023-04-25T09:57:14;2.70;;;1.63;;
41512;SDS011;27244;59.940;30.280;2023-04-25T09:59:44;2.10;;;1.40;;
41512;SDS011;27244;59.940;30.280;2023-04-25T10:02:13;1.45;;;1.13;;
41512;SDS011;27244;59.940;30.280;2023-04-25T10:04:41;3.63;;;1.30;;
41512;SDS011;27244;59.940;30.280;2023-04-25T10:07:18;2.38;;;1.52;;
41512;SDS011;27244;59.940;30.280;2023-04-25T10:09:48;4.47;;;1.60;;
41512;SDS011;27244;59.940;30.280;2023-04-25T10:12:16;3.13;;;1.20;;
41512;SDS011;27244;59.940;30.280;2023-04-25T10:14:45;2.17;;;1.60;;
41512;SDS011;27244;59.940;30.280;2023-04-25T10:17:13;3.90;;;1.50;;
41512;SDS011;27244;59.940;30.280;2023-04-25T10:19:40;3.15;;;1.52;;
41512;SDS011;27244;59.940;30.280;2023-04-25T10:22:08;3.40;;;1.70;;
41512;SDS011;27244;59.940;30.280;2023-04-25T10:24:40;3.28;;;1.40;;
41512;SDS011;27244;59.940;30.280;2023-04-25T10:27:11;2.58;;;1.30;;
41512;SDS011;27244;59.940;30.280;2023-04-25T10:29:38;4.15;;;1.30;;
41512;SDS011;27244;59.940;30.280;2023-04-25T10:32:09;3.00;;;1.45;;
41512;SDS011;27244;59.940;30.280;2023-04-25T10:34:38;2.03;;;1.20;;
41512;SDS011;27244;59.940;30.280;2023-04-25T10:37:08;2.92;;;1.30;;
41512;SDS011;27244;59.940;30.280;2023-04-25T10:39:37;1.42;;;1.15;;
41512;SDS011;27244;59.940;30.280;2023-04-25T10:42:06;2.05;;;1.35;;
41512;SDS011;27244;59.940;30.280;2023-04-25T10:44:34;4.38;;;1.50;;
41512;SDS011;27244;59.940;30.280;2023-04-25T10:47:03;3.25;;;1.30;;
41512;SDS011;27244;59.940;30.280;2023-04-25T10:49:34;2.65;;;1.40;;
41512;SDS011;27244;59.940;30.280;2023-04-25T10:52:15;2.05;;;1.52;;
41512;SDS011;27244;59.940;30.280;2023-04-25T10:54:47;6.07;;;1.60;;
41512;SDS011;27244;59.940;30.280;2023-04-25T10:59:57;4.03;;;1.58;;
41512;SDS011;27244;59.940;30.280;2023-04-25T11:04:55;5.90;;;1.85;;
41512;SDS011;27244;59.940;30.280;2023-04-25T11:07:25;3.22;;;1.70;;
41512;SDS011;27244;59.940;30.280;2023-04-25T11:10:05;3.72;;;1.55;;
41512;SDS011;27244;59.940;30.280;2023-04-25T11:12:33;2.08;;;1.70;;
41512;SDS011;27244;59.940;30.280;2023-04-25T11:15:03;4.45;;;1.67;;
41512;SDS011;27244;59.940;30.280;2023-04-25T11:17:32;3.00;;;1.60;;
41512;SDS011;27244;59.940;30.280;2023-04-25T11:20:01;3.13;;;1.48;;
41512;SDS011;27244;59.940;30.280;2023-04-25T11:22:32;4.15;;;1.80;;
41512;SDS011;27244;59.940;30.280;2023-04-25T11:25:04;1.95;;;1.48;;
41512;SDS011;27244;59.940;30.280;2023-04-25T11:27:32;4.35;;;1.80;;
41512;SDS011;27244;59.940;30.280;2023-04-25T11:30:09;5.72;;;1.77;;
41512;SDS011;27244;59.940;30.280;2023-04-25T11:32:36;4.90;;;1.83;;
41512;SDS011;27244;59.940;30.280;2023-04-25T11:35:07;3.95;;;1.75;;
41512;SDS011;27244;59.940;30.280;2023-04-25T11:37:35;7.35;;;1.70;;
41512;SDS011;27244;59.940;30.280;2023-04-25T11:40:02;3.80;;;1.73;;
41512;SDS011;27244;59.940;30.280;2023-04-25T11:42:31;4.53;;;1.88;;
41512;SDS011;27244;59.940;30.280;2023-04-25T11:44:58;4.15;;;1.63;;
41512;SDS011;27244;59.940;30.280;2023-04-25T11:47:29;5.30;;;2.05;;
41512;SDS011;27244;59.940;30.280;2023-04-25T11:49:57;4.40;;;1.90;;
41512;SDS011;27244;59.940;30.280;2023-04-25T11:52:36;4.20;;;1.75;;
41512;SDS011;27244;59.940;30.280;2023-04-25T11:55:04;5.25;;;2.20;;
41512;SDS011;27244;59.940;30.280;2023-04-25T11:57:32;5.78;;;2.10;;
41512;SDS011;27244;59.940;30.280;2023-04-25T12:00:07;3.63;;;1.50;;
41512;SDS011;27244;59.940;30.280;2023-04-25T12:02:42;6.13;;;1.88;;
41512;SDS011;27244;59.940;30.280;2023-04-25T12:07:39;4.07;;;1.90;;
41512;SDS011;27244;59.940;30.280;2023-04-25T12:10:08;2.80;;;1.75;;
41512;SDS011;27244;59.940;30.280;2023-04-25T12:12:36;6.28;;;1.70;;
41512;SDS011;27244;59.940;30.280;2023-04-25T12:15:11;4.70;;;1.95;;
41512;SDS011;27244;59.940;30.280;2023-04-25T12:17:40;4.95;;;1.95;;
41512;SDS011;27244;59.940;30.280;2023-04-25T12:20:09;5.90;;;2.03;;
41512;SDS011;27244;59.940;30.280;2023-04-25T12:22:37;6.47;;;2.17;;
41512;SDS011;27244;59.940;30.280;2023-04-25T12:25:06;3.65;;;1.98;;
41512;SDS011;27244;59.940;30.280;2023-04-25T12:27:33;2.67;;;1.70;;
41512;SDS011;27244;59.940;30.280;2023-04-25T12:30:02;3.15;;;1.75;;
41512;SDS011;27244;59.940;30.280;2023-04-25T12:32:30;7.30;;;2.40;;
41512;SDS011;27244;59.940;30.280;2023-04-25T12:34:57;4.53;;;2.22;;
41512;SDS011;27244;59.940;30.280;2023-04-25T12:37:24;4.75;;;2.17;;
41512;SDS011;27244;59.940;30.280;2023-04-25T12:39:51;5.10;;;1.80;;
41512;SDS011;27244;59.940;30.280;2023-04-25T12:42:20;4.90;;;1.90;;
41512;SDS011;27244;59.940;30.280;2023-04-25T12:44:46;6.45;;;2.28;;
41512;SDS011;27244;59.940;30.280;2023-04-25T12:47:13;4.40;;;1.90;;
41512;SDS011;27244;59.940;30.280;2023-04-25T12:49:41;6.50;;;2.05;;
41512;SDS011;27244;59.940;30.280;2023-04-25T12:52:08;3.67;;;2.25;;
41512;SDS011;27244;59.940;30.280;2023-04-25T12:54:35;6.00;;;2.47;;
41512;SDS011;27244;59.940;30.280;2023-04-25T12:57:02;7.10;;;2.30;;
41512;SDS011;27244;59.940;30.280;2023-04-25T12:59:30;5.50;;;2.35;;
41512;SDS011;27244;59.940;30.280;2023-04-25T13:01:57;4.80;;;1.90;;
41512;SDS011;27244;59.940;30.280;2023-04-25T13:04:24;5.68;;;2.65;;
41512;SDS011;27244;59.940;30.280;2023-04-25T13:06:51;6.28;;;2.22;;
41512;SDS011;27244;59.940;30.280;2023-04-25T13:09:18;3.85;;;1.98;;
41512;SDS011;27244;59.940;30.280;2023-04-25T13:11:45;7.80;;;2.40;;
41512;SDS011;27244;59.940;30.280;2023-04-25T13:14:12;4.90;;;2.55;;
41512;SDS011;27244;59.940;30.280;2023-04-25T13:16:42;3.88;;;2.13;;
41512;SDS011;27244;59.940;30.280;2023-04-25T13:19:09;4.20;;;1.90;;
41512;SDS011;27244;59.940;30.280;2023-04-25T13:21:37;4.82;;;2.00;;
41512;SDS011;27244;59.940;30.280;2023-04-25T13:24:05;3.05;;;2.10;;
41512;SDS011;27244;59.940;30.280;2023-04-25T13:26:32;5.82;;;2.10;;
41512;SDS011;27244;59.940;30.280;2023-04-25T13:28:59;5.60;;;2.20;;
41512;SDS011;27244;59.940;30.280;2023-04-25T13:31:28;5.70;;;2.13;;
41512;SDS011;27244;59.940;30.280;2023-04-25T13:33:58;5.13;;;2.25;;
41512;SDS011;27244;59.940;30.280;2023-04-25T13:36:25;4.07;;;1.95;;
41512;SDS011;27244;59.940;30.280;2023-04-25T13:38:53;5.63;;;2.40;;
41512;SDS011;27244;59.940;30.280;2023-04-25T13:41:20;4.72;;;2.10;;
41512;SDS011;27244;59.940;30.280;2023-04-25T13:43:47;5.15;;;2.38;;
41512;SDS011;27244;59.940;30.280;2023-04-25T13:46:14;4.07;;;2.15;;
41512;SDS011;27244;59.940;30.280;2023-04-25T13:48:41;4.38;;;2.10;;
41512;SDS011;27244;59.940;30.280;2023-04-25T13:51:16;4.47;;;2.35;;
41512;SDS011;27244;59.940;30.280;2023-04-25T13:53:43;5.65;;;2.22;;
41512;SDS011;27244;59.940;30.280;2023-04-25T13:56:10;6.90;;;2.47;;
41512;SDS011;27244;59.940;30.280;2023-04-25T13:58:38;3.95;;;2.33;;
41512;SDS011;27244;59.940;30.280;2023-04-25T14:01:05;6.80;;;2.80;;
41512;SDS011;27244;59.940;30.280;2023-04-25T14:03:32;5.88;;;2.67;;
41512;SDS011;27244;59.940;30.280;2023-04-25T14:05:59;6.90;;;2.10;;
41512;SDS011;27244;59.940;30.280;2023-04-25T14:08:27;8.20;;;2.70;;
41512;SDS011;27244;59.940;30.280;2023-04-25T14:10:55;6.13;;;2.10;;
41512;SDS011;27244;59.940;30.280;2023-04-25T14:13:22;4.15;;;2.28;;
41512;SDS011;27244;59.940;30.280;2023-04-25T14:15:50;4.30;;;2.20;;
41512;SDS011;27244;59.940;30.280;2023-04-25T14:18:17;3.60;;;1.95;;
41512;SDS011;27244;59.940;30.280;2023-04-25T14:20:44;4.72;;;2.20;;
41512;SDS011;27244;59.940;30.280;2023-04-25T14:23:11;10.75;;;3.00;;
41512;SDS011;27244;59.940;30.280;2023-04-25T14:25:40;6.72;;;2.35;;
41512;SDS011;27244;59.940;30.280;2023-04-25T14:28:09;6.22;;;2.63;;
41512;SDS011;27244;59.940;30.280;2023-04-25T14:30:37;4.65;;;2.67;;
41512;SDS011;27244;59.940;30.280;2023-04-25T14:33:03;4.20;;;2.20;;
41512;SDS011;27244;59.940;30.280;2023-04-25T14:35:30;5.15;;;2.35;;
41512;SDS011;27244;59.940;30.280;2023-04-25T14:37:57;3.70;;;2.33;;
41512;SDS011;27244;59.940;30.280;2023-04-25T14:40:25;5.72;;;2.40;;
41512;SDS011;27244;59.940;30.280;2023-04-25T14:42:54;9.77;;;3.35;;
41512;SDS011;27244;59.940;30.280;2023-04-25T14:45:21;8.07;;;2.67;;
41512;SDS011;27244;59.940;30.280;2023-04-25T14:47:48;7.13;;;2.40;;
41512;SDS011;27244;59.940;30.280;2023-04-25T14:50:15;5.50;;;2.63;;
41512;SDS011;27244;59.940;30.280;2023-04-25T14:52:42;5.47;;;2.20;;
41512;SDS011;27244;59.940;30.280;2023-04-25T14:55:10;4.63;;;2.20;;
41512;SDS011;27244;59.940;30.280;2023-04-25T14:57:37;3.58;;;2.00;;
41512;SDS011;27244;59.940;30.280;2023-04-25T15:00:06;6.10;;;2.40;;
41512;SDS011;27244;59.940;30.280;2023-04-25T15:02:34;4.50;;;2.30;;
41512;SDS011;27244;59.940;30.280;2023-04-25T15:05:02;4.88;;;2.47;;
41512;SDS011;27244;59.940;30.280;2023-04-25T15:07:29;5.00;;;2.35;;